sensor_id;sensor_type;location;lat;lon;timestamp;P1;durP1;ratioP1;P2;durP2;ratioP2
83176;SDS011;73074;52.006;4.704;2024-02-15T00:00:30;8.88;;;3.35;;
83176;SDS011;73074;52.006;4.704;2024-02-15T00:05:57;10.40;;;2.80;;
83176;SDS011;73074;52.006;4.704;2024-02-15T00:11:09;6.32;;;2.10;;
83176;SDS011;73074;52.006;4.704;2024-02-15T00:16:17;13.63;;;2.53;;
83176;SDS011;73074;52.006;4.704;2024-02-15T00:21:29;5.95;;;2.78;;
83176;SDS011;73074;52.006;4.704;2024-02-15T00:26:42;7.80;;;2.70;;
83176;SDS011;73074;52.006;4.704;2024-02-15T00:31:46;6.03;;;2.58;;
83176;SDS011;73074;52.006;4.704;2024-02-15T00:37:02;9.93;;;3.60;;
83176;SDS011;73074;52.006;4.704;2024-02-15T00:42:12;10.55;;;2.55;;
83176;SDS011;73074;52.006;4.704;2024-02-15T00:47:24;10.27;;;3.40;;
83176;SDS011;73074;52.006;4.704;2024-02-15T00:52:39;7.80;;;3.53;;
83176;SDS011;73074;52.006;4.704;2024-02-15T00:58:00;8.50;;;3.17;;
83176;SDS011;73074;52.006;4.704;2024-02-15T01:03:12;8.40;;;3.92;;
83176;SDS011;73074;52.006;4.704;2024-02-15T01:13:54;9.95;;;4.20;;
83176;SDS011;73074;52.006;4.704;2024-02-15T01:19:05;9.88;;;3.83;;
83176;SDS011;73074;52.006;4.704;2024-02-15T01:24:10;10.68;;;4.03;;
83176;SDS011;73074;52.006;4.704;2024-02-15T01:29:19;8.60;;;3.75;;
83176;SDS011;73074;52.006;4.704;2024-02-15T01:34:23;9.02;;;4.13;;
83176;SDS011;73074;52.006;4.704;2024-02-15T01:39:30;11.85;;;4.30;;
83176;SDS011;73074;52.006;4.704;2024-02-15T01:44:44;9.18;;;3.25;;
83176;SDS011;73074;52.006;4.704;2024-02-15T01:55:07;8.18;;;4.03;;
83176;SDS011;73074;52.006;4.704;2024-02-15T02:00:14;9.75;;;4.05;;
83176;SDS011;73074;52.006;4.704;2024-02-15T02:05:26;9.85;;;4.47;;
83176;SDS011;73074;52.006;4.704;2024-02-15T02:16:34;15.32;;;4.95;;
83176;SDS011;73074;52.006;4.704;2024-02-15T02:21:32;11.75;;;5.15;;
83176;SDS011;73074;52.006;4.704;2024-02-15T02:26:35;10.55;;;4.50;;
83176;SDS011;73074;52.006;4.704;2024-02-15T02:31:42;7.05;;;4.38;;
83176;SDS011;73074;52.006;4.704;2024-02-15T02:37:13;14.38;;;4.50;;
83176;SDS011;73074;52.006;4.704;2024-02-15T02:42:36;10.38;;;4.90;;
83176;SDS011;73074;52.006;4.704;2024-02-15T02:53:38;10.25;;;3.83;;
83176;SDS011;73074;52.006;4.704;2024-02-15T02:58:55;9.88;;;4.28;;
83176;SDS011;73074;52.006;4.704;2024-02-15T03:09:17;9.02;;;3.58;;
83176;SDS011;73074;52.006;4.704;2024-02-15T03:14:20;8.48;;;3.78;;
83176;SDS011;73074;52.006;4.704;2024-02-15T03:24:35;14.15;;;3.58;;
83176;SDS011;73074;52.006;4.704;2024-02-15T03:29:46;8.98;;;3.13;;
83176;SDS011;73074;52.006;4.704;2024-02-15T03:40:16;12.40;;;3.83;;
83176;SDS011;73074;52.006;4.704;2024-02-15T03:45:22;8.95;;;3.92;;
83176;SDS011;73074;52.006;4.704;2024-02-15T03:50:37;9.60;;;3.53;;
83176;SDS011;73074;52.006;4.704;2024-02-15T03:55:56;7.97;;;3.92;;
83176;SDS011;73074;52.006;4.704;2024-02-15T04:06:35;9.27;;;4.50;;
83176;SDS011;73074;52.006;4.704;2024-02-15T04:11:37;15.07;;;4.75;;
83176;SDS011;73074;52.006;4.704;2024-02-15T04:16:40;15.48;;;5.05;;
83176;SDS011;73074;52.006;4.704;2024-02-15T04:21:45;14.68;;;4.95;;
83176;SDS011;73074;52.006;4.704;2024-02-15T04:26:57;9.18;;;5.05;;
83176;SDS011;73074;52.006;4.704;2024-02-15T04:32:05;9.55;;;4.82;;
83176;SDS011;73074;52.006;4.704;2024-02-15T04:37:11;11.85;;;6.10;;
83176;SDS011;73074;52.006;4.704;2024-02-15T04:42:27;9.77;;;5.25;;
83176;SDS011;73074;52.006;4.704;2024-02-15T04:47:42;11.77;;;5.22;;
83176;SDS011;73074;52.006;4.704;2024-02-15T04:52:44;11.80;;;6.18;;
83176;SDS011;73074;52.006;4.704;2024-02-15T04:57:58;12.50;;;6.15;;
83176;SDS011;73074;52.006;4.704;2024-02-15T05:03:05;13.00;;;6.22;;
83176;SDS011;73074;52.006;4.704;2024-02-15T05:08:23;18.45;;;7.18;;
83176;SDS011;73074;52.006;4.704;2024-02-15T05:13:25;16.85;;;6.47;;
83176;SDS011;73074;52.006;4.704;2024-02-15T05:18:27;12.75;;;7.13;;
83176;SDS011;73074;52.006;4.704;2024-02-15T05:29:08;15.65;;;6.93;;
83176;SDS011;73074;52.006;4.704;2024-02-15T05:34:11;18.40;;;8.20;;
83176;SDS011;73074;52.006;4.704;2024-02-15T05:39:22;21.35;;;8.45;;
83176;SDS011;73074;52.006;4.704;2024-02-15T05:50:34;18.90;;;7.53;;
83176;SDS011;73074;52.006;4.704;2024-02-15T05:56:11;15.88;;;7.75;;
83176;SDS011;73074;52.006;4.704;2024-02-15T06:01:15;16.35;;;8.48;;
83176;SDS011;73074;52.006;4.704;2024-02-15T06:17:18;19.77;;;6.88;;
83176;SDS011;73074;52.006;4.704;2024-02-15T06:22:29;15.88;;;7.47;;
83176;SDS011;73074;52.006;4.704;2024-02-15T06:27:33;14.85;;;8.25;;
83176;SDS011;73074;52.006;4.704;2024-02-15T06:32:41;13.50;;;6.90;;
83176;SDS011;73074;52.006;4.704;2024-02-15T06:37:42;12.25;;;6.95;;
83176;SDS011;73074;52.006;4.704;2024-02-15T06:42:52;12.75;;;6.05;;
83176;SDS011;73074;52.006;4.704;2024-02-15T06:47:57;13.40;;;7.43;;
83176;SDS011;73074;52.006;4.704;2024-02-15T06:52:58;12.52;;;6.30;;
83176;SDS011;73074;52.006;4.704;2024-02-15T06:58:05;9.68;;;6.03;;
83176;SDS011;73074;52.006;4.704;2024-02-15T07:03:08;15.68;;;6.15;;
83176;SDS011;73074;52.006;4.704;2024-02-15T07:08:22;11.55;;;6.18;;
83176;SDS011;73074;52.006;4.704;2024-02-15T07:13:32;14.15;;;5.97;;
83176;SDS011;73074;52.006;4.704;2024-02-15T07:18:38;10.75;;;5.78;;
83176;SDS011;73074;52.006;4.704;2024-02-15T07:23:40;12.13;;;6.07;;
83176;SDS011;73074;52.006;4.704;2024-02-15T07:28:53;10.73;;;5.43;;
83176;SDS011;73074;52.006;4.704;2024-02-15T07:33:59;13.10;;;6.07;;
83176;SDS011;73074;52.006;4.704;2024-02-15T07:39:00;16.13;;;6.82;;
83176;SDS011;73074;52.006;4.704;2024-02-15T07:44:01;17.92;;;7.85;;
83176;SDS011;73074;52.006;4.704;2024-02-15T07:49:03;16.83;;;6.63;;
83176;SDS011;73074;52.006;4.704;2024-02-15T07:54:08;16.90;;;6.97;;
83176;SDS011;73074;52.006;4.704;2024-02-15T07:59:16;14.38;;;7.10;;
83176;SDS011;73074;52.006;4.704;2024-02-15T08:04:21;16.85;;;7.05;;
83176;SDS011;73074;52.006;4.704;2024-02-15T08:09:25;15.20;;;8.02;;
83176;SDS011;73074;52.006;4.704;2024-02-15T08:14:43;11.55;;;7.30;;
83176;SDS011;73074;52.006;4.704;2024-02-15T08:19:44;13.55;;;6.85;;
83176;SDS011;73074;52.006;4.704;2024-02-15T08:24:45;15.55;;;6.25;;
83176;SDS011;73074;52.006;4.704;2024-02-15T08:29:49;13.75;;;5.25;;
83176;SDS011;73074;52.006;4.704;2024-02-15T08:34:50;9.68;;;5.40;;
83176;SDS011;73074;52.006;4.704;2024-02-15T08:39:51;14.07;;;5.65;;
83176;SDS011;73074;52.006;4.704;2024-02-15T08:44:52;11.38;;;5.65;;
83176;SDS011;73074;52.006;4.704;2024-02-15T08:49:53;12.63;;;5.93;;
83176;SDS011;73074;52.006;4.704;2024-02-15T08:55:05;13.25;;;5.45;;
83176;SDS011;73074;52.006;4.704;2024-02-15T09:05:29;12.82;;;5.25;;
83176;SDS011;73074;52.006;4.704;2024-02-15T09:10:30;13.90;;;4.65;;
83176;SDS011;73074;52.006;4.704;2024-02-15T09:21:12;8.70;;;4.05;;
83176;SDS011;73074;52.006;4.704;2024-02-15T09:26:20;10.35;;;3.97;;
83176;SDS011;73074;52.006;4.704;2024-02-15T09:36:47;12.73;;;4.45;;
83176;SDS011;73074;52.006;4.704;2024-02-15T09:41:48;8.50;;;3.88;;
83176;SDS011;73074;52.006;4.704;2024-02-15T09:47:01;14.50;;;4.30;;
83176;SDS011;73074;52.006;4.704;2024-02-15T09:52:06;9.85;;;3.83;;
83176;SDS011;73074;52.006;4.704;2024-02-15T09:57:21;11.25;;;4.28;;
83176;SDS011;73074;52.006;4.704;2024-02-15T10:02:22;11.73;;;3.65;;
83176;SDS011;73074;52.006;4.704;2024-02-15T10:07:29;7.70;;;3.75;;
83176;SDS011;73074;52.006;4.704;2024-02-15T10:12:38;5.72;;;3.05;;
83176;SDS011;73074;52.006;4.704;2024-02-15T10:17:39;7.82;;;3.03;;
83176;SDS011;73074;52.006;4.704;2024-02-15T10:28:12;9.35;;;3.42;;
83176;SDS011;73074;52.006;4.704;2024-02-15T10:33:33;7.10;;;3.53;;
83176;SDS011;73074;52.006;4.704;2024-02-15T10:38:40;9.40;;;3.83;;
83176;SDS011;73074;52.006;4.704;2024-02-15T10:43:46;6.40;;;3.58;;
83176;SDS011;73074;52.006;4.704;2024-02-15T10:48:56;10.38;;;3.80;;
83176;SDS011;73074;52.006;4.704;2024-02-15T10:54:05;8.70;;;4.15;;
83176;SDS011;73074;52.006;4.704;2024-02-15T10:59:16;8.48;;;3.55;;
83176;SDS011;73074;52.006;4.704;2024-02-15T11:04:28;5.40;;;3.63;;
83176;SDS011;73074;52.006;4.704;2024-02-15T11:25:45;11.27;;;4.85;;
83176;SDS011;73074;52.006;4.704;2024-02-15T11:31:05;11.27;;;4.53;;
83176;SDS011;73074;52.006;4.704;2024-02-15T11:36:19;10.85;;;4.43;;
83176;SDS011;73074;52.006;4.704;2024-02-15T11:41:31;7.53;;;2.60;;
83176;SDS011;73074;52.006;4.704;2024-02-15T11:52:14;9.52;;;3.33;;
83176;SDS011;73074;52.006;4.704;2024-02-15T11:57:16;5.25;;;3.83;;
83176;SDS011;73074;52.006;4.704;2024-02-15T12:02:19;8.90;;;4.00;;
83176;SDS011;73074;52.006;4.704;2024-02-15T12:07:26;5.93;;;3.63;;
83176;SDS011;73074;52.006;4.704;2024-02-15T12:12:37;6.13;;;3.75;;
83176;SDS011;73074;52.006;4.704;2024-02-15T12:17:51;7.07;;;4.30;;
83176;SDS011;73074;52.006;4.704;2024-02-15T12:22:52;11.60;;;4.20;;
83176;SDS011;73074;52.006;4.704;2024-02-15T12:27:55;4.93;;;2.80;;
83176;SDS011;73074;52.006;4.704;2024-02-15T12:33:08;8.48;;;4.18;;
83176;SDS011;73074;52.006;4.704;2024-02-15T12:38:21;6.07;;;4.30;;
83176;SDS011;73074;52.006;4.704;2024-02-15T12:43:22;9.73;;;4.78;;
83176;SDS011;73074;52.006;4.704;2024-02-15T12:48:29;7.20;;;4.80;;
83176;SDS011;73074;52.006;4.704;2024-02-15T12:53:42;7.15;;;4.53;;
83176;SDS011;73074;52.006;4.704;2024-02-15T12:58:43;6.05;;;3.85;;
83176;SDS011;73074;52.006;4.704;2024-02-15T13:03:50;7.85;;;3.92;;
83176;SDS011;73074;52.006;4.704;2024-02-15T13:08:59;5.22;;;3.42;;
83176;SDS011;73074;52.006;4.704;2024-02-15T13:14:00;5.38;;;2.72;;
83176;SDS011;73074;52.006;4.704;2024-02-15T13:19:09;5.40;;;2.40;;
83176;SDS011;73074;52.006;4.704;2024-02-15T13:24:10;5.03;;;2.00;;
83176;SDS011;73074;52.006;4.704;2024-02-15T13:29:11;4.65;;;2.22;;
83176;SDS011;73074;52.006;4.704;2024-02-15T13:34:12;4.75;;;2.13;;
83176;SDS011;73074;52.006;4.704;2024-02-15T13:39:13;6.00;;;2.38;;
83176;SDS011;73074;52.006;4.704;2024-02-15T13:44:17;5.72;;;2.47;;
83176;SDS011;73074;52.006;4.704;2024-02-15T13:49:19;4.35;;;1.77;;
83176;SDS011;73074;52.006;4.704;2024-02-15T13:54:26;3.70;;;1.90;;
83176;SDS011;73074;52.006;4.704;2024-02-15T13:59:27;4.95;;;1.67;;
83176;SDS011;73074;52.006;4.704;2024-02-15T14:04:36;5.05;;;2.03;;
83176;SDS011;73074;52.006;4.704;2024-02-15T14:09:41;4.88;;;2.10;;
83176;SDS011;73074;52.006;4.704;2024-02-15T14:19:56;4.85;;;1.92;;
83176;SDS011;73074;52.006;4.704;2024-02-15T14:30:06;4.50;;;2.08;;
83176;SDS011;73074;52.006;4.704;2024-02-15T14:35:13;6.03;;;1.83;;
83176;SDS011;73074;52.006;4.704;2024-02-15T14:40:25;5.20;;;2.45;;
83176;SDS011;73074;52.006;4.704;2024-02-15T14:45:26;3.88;;;1.65;;
83176;SDS011;73074;52.006;4.704;2024-02-15T14:50:41;5.03;;;1.67;;
83176;SDS011;73074;52.006;4.704;2024-02-15T14:56:01;17.35;;;10.45;;
83176;SDS011;73074;52.006;4.704;2024-02-15T15:01:02;8.00;;;3.40;;
83176;SDS011;73074;52.006;4.704;2024-02-15T15:06:20;5.93;;;3.35;;
83176;SDS011;73074;52.006;4.704;2024-02-15T15:11:26;4.90;;;2.25;;
83176;SDS011;73074;52.006;4.704;2024-02-15T15:16:27;8.38;;;3.08;;
83176;SDS011;73074;52.006;4.704;2024-02-15T15:21:39;8.93;;;5.03;;
83176;SDS011;73074;52.006;4.704;2024-02-15T15:26:52;7.95;;;3.05;;
83176;SDS011;73074;52.006;4.704;2024-02-15T15:31:55;7.38;;;2.45;;
83176;SDS011;73074;52.006;4.704;2024-02-15T15:36:56;3.80;;;2.20;;
83176;SDS011;73074;52.006;4.704;2024-02-15T15:42:13;8.25;;;3.75;;
83176;SDS011;73074;52.006;4.704;2024-02-15T15:47:30;15.23;;;5.93;;
83176;SDS011;73074;52.006;4.704;2024-02-15T15:52:40;5.70;;;2.47;;
83176;SDS011;73074;52.006;4.704;2024-02-15T15:57:41;6.00;;;2.33;;
83176;SDS011;73074;52.006;4.704;2024-02-15T16:07:49;5.95;;;2.70;;
83176;SDS011;73074;52.006;4.704;2024-02-15T16:12:50;5.50;;;2.65;;
83176;SDS011;73074;52.006;4.704;2024-02-15T16:17:51;4.30;;;2.50;;
83176;SDS011;73074;52.006;4.704;2024-02-15T16:23:08;5.43;;;2.50;;
83176;SDS011;73074;52.006;4.704;2024-02-15T16:28:15;3.92;;;2.83;;
83176;SDS011;73074;52.006;4.704;2024-02-15T16:33:26;5.57;;;2.70;;
83176;SDS011;73074;52.006;4.704;2024-02-15T16:44:51;4.50;;;2.03;;
83176;SDS011;73074;52.006;4.704;2024-02-15T16:50:29;5.00;;;2.00;;
83176;SDS011;73074;52.006;4.704;2024-02-15T16:56:15;2.53;;;2.10;;
83176;SDS011;73074;52.006;4.704;2024-02-15T17:01:21;5.70;;;2.45;;
83176;SDS011;73074;52.006;4.704;2024-02-15T17:06:30;2.92;;;1.85;;
83176;SDS011;73074;52.006;4.704;2024-02-15T17:11:47;16.40;;;3.22;;
83176;SDS011;73074;52.006;4.704;2024-02-15T17:16:58;3.80;;;2.30;;
83176;SDS011;73074;52.006;4.704;2024-02-15T17:22:00;3.72;;;1.92;;
83176;SDS011;73074;52.006;4.704;2024-02-15T17:27:08;5.80;;;2.53;;
83176;SDS011;73074;52.006;4.704;2024-02-15T17:32:17;4.78;;;2.28;;
83176;SDS011;73074;52.006;4.704;2024-02-15T17:37:18;5.28;;;2.25;;
83176;SDS011;73074;52.006;4.704;2024-02-15T17:42:26;5.40;;;1.80;;
83176;SDS011;73074;52.006;4.704;2024-02-15T17:53:36;5.85;;;2.45;;
83176;SDS011;73074;52.006;4.704;2024-02-15T17:58:37;2.78;;;2.47;;
83176;SDS011;73074;52.006;4.704;2024-02-15T18:03:42;7.10;;;2.72;;
83176;SDS011;73074;52.006;4.704;2024-02-15T18:08:52;4.38;;;2.55;;
83176;SDS011;73074;52.006;4.704;2024-02-15T18:13:58;7.63;;;3.47;;
83176;SDS011;73074;52.006;4.704;2024-02-15T18:19:06;5.03;;;2.42;;
83176;SDS011;73074;52.006;4.704;2024-02-15T18:24:07;3.60;;;2.65;;
83176;SDS011;73074;52.006;4.704;2024-02-15T18:29:11;5.63;;;3.03;;
83176;SDS011;73074;52.006;4.704;2024-02-15T18:34:13;6.65;;;2.65;;
83176;SDS011;73074;52.006;4.704;2024-02-15T18:39:30;7.32;;;2.72;;
83176;SDS011;73074;52.006;4.704;2024-02-15T18:50:08;10.45;;;2.92;;
83176;SDS011;73074;52.006;4.704;2024-02-15T18:55:12;6.03;;;3.08;;
83176;SDS011;73074;52.006;4.704;2024-02-15T19:00:13;8.25;;;3.55;;
83176;SDS011;73074;52.006;4.704;2024-02-15T19:15:54;5.47;;;3.22;;
83176;SDS011;73074;52.006;4.704;2024-02-15T19:21:04;7.88;;;3.17;;
83176;SDS011;73074;52.006;4.704;2024-02-15T19:26:16;9.73;;;3.95;;
83176;SDS011;73074;52.006;4.704;2024-02-15T19:31:17;5.65;;;4.13;;
83176;SDS011;73074;52.006;4.704;2024-02-15T19:36:25;7.20;;;3.08;;
83176;SDS011;73074;52.006;4.704;2024-02-15T19:41:27;5.45;;;3.35;;
83176;SDS011;73074;52.006;4.704;2024-02-15T19:46:37;5.28;;;3.40;;
83176;SDS011;73074;52.006;4.704;2024-02-15T19:52:10;6.20;;;2.78;;
83176;SDS011;73074;52.006;4.704;2024-02-15T19:57:11;7.50;;;2.97;;
83176;SDS011;73074;52.006;4.704;2024-02-15T20:02:16;6.40;;;2.45;;
83176;SDS011;73074;52.006;4.704;2024-02-15T20:17:50;3.88;;;1.88;;
83176;SDS011;73074;52.006;4.704;2024-02-15T20:22:54;6.93;;;2.28;;
83176;SDS011;73074;52.006;4.704;2024-02-15T20:27:59;7.80;;;3.13;;
83176;SDS011;73074;52.006;4.704;2024-02-15T20:33:27;17.23;;;4.60;;
83176;SDS011;73074;52.006;4.704;2024-02-15T20:44:15;7.25;;;2.20;;
83176;SDS011;73074;52.006;4.704;2024-02-15T20:49:27;5.10;;;2.35;;
83176;SDS011;73074;52.006;4.704;2024-02-15T20:54:37;3.75;;;2.00;;
83176;SDS011;73074;52.006;4.704;2024-02-15T20:59:40;4.05;;;2.30;;
83176;SDS011;73074;52.006;4.704;2024-02-15T21:04:52;3.53;;;1.90;;
83176;SDS011;73074;52.006;4.704;2024-02-15T21:09:57;4.45;;;2.30;;
83176;SDS011;73074;52.006;4.704;2024-02-15T21:20:45;5.88;;;3.17;;
83176;SDS011;73074;52.006;4.704;2024-02-15T21:31:25;6.45;;;2.20;;
83176;SDS011;73074;52.006;4.704;2024-02-15T21:36:33;6.78;;;3.10;;
83176;SDS011;73074;52.006;4.704;2024-02-15T21:41:36;6.55;;;2.80;;
83176;SDS011;73074;52.006;4.704;2024-02-15T21:46:40;4.57;;;2.80;;
83176;SDS011;73074;52.006;4.704;2024-02-15T21:51:44;8.05;;;3.55;;
83176;SDS011;73074;52.006;4.704;2024-02-15T21:56:57;3.83;;;2.40;;
83176;SDS011;73074;52.006;4.704;2024-02-15T22:02:16;3.90;;;2.42;;
83176;SDS011;73074;52.006;4.704;2024-02-15T22:07:38;2.53;;;2.20;;
83176;SDS011;73074;52.006;4.704;2024-02-15T22:12:53;6.75;;;2.75;;
83176;SDS011;73074;52.006;4.704;2024-02-15T22:18:11;2.53;;;1.98;;
83176;SDS011;73074;52.006;4.704;2024-02-15T22:28:42;3.78;;;2.15;;
83176;SDS011;73074;52.006;4.704;2024-02-15T22:33:51;3.92;;;1.88;;
83176;SDS011;73074;52.006;4.704;2024-02-15T22:38:52;3.22;;;2.22;;
83176;SDS011;73074;52.006;4.704;2024-02-15T22:44:11;3.50;;;2.30;;
83176;SDS011;73074;52.006;4.704;2024-02-15T22:49:31;4.10;;;2.38;;
83176;SDS011;73074;52.006;4.704;2024-02-15T22:54:35;4.68;;;2.00;;
83176;SDS011;73074;52.006;4.704;2024-02-15T22:59:41;5.03;;;2.20;;
83176;SDS011;73074;52.006;4.704;2024-02-15T23:04:56;3.25;;;2.08;;
83176;SDS011;73074;52.006;4.704;2024-02-15T23:09:57;7.00;;;2.40;;
83176;SDS011;73074;52.006;4.704;2024-02-15T23:15:18;4.18;;;2.08;;
83176;SDS011;73074;52.006;4.704;2024-02-15T23:20:25;3.50;;;2.75;;
83176;SDS011;73074;52.006;4.704;2024-02-15T23:25:32;5.35;;;2.25;;
83176;SDS011;73074;52.006;4.704;2024-02-15T23:35:57;4.80;;;2.58;;
83176;SDS011;73074;52.006;4.704;2024-02-15T23:41:07;5.45;;;2.58;;
83176;SDS011;73074;52.006;4.704;2024-02-15T23:46:28;5.75;;;2.20;;
83176;SDS011;73074;52.006;4.704;2024-02-15T23:51:30;4.25;;;2.15;;
83176;SDS011;73074;52.006;4.704;2024-02-15T23:56:40;4.00;;;2.42;;
